ROTAER D-AMDT 49/20 Ver Mudanças

SAO PAULO CATARINA AEROPORTO EXECUTIVO ( SBJH ) / SÃO ROQUE, SP 23 25 37S/047 09 57W
AD PUB UTC-3 VFR IFR L21 , L26 776.33 (2547)

12 - L9(3.25) [1] , L12 - ( 2470x33 ASPH 30/F/B/X/T L14 , L15 ) - L9 [2] , L12 - 30

SBCW (SRPV-SP)
RFFS - CAT - 5

RMK -

REGULAMENTOS PARA TRÁFEGO LOCAL
  1. PRB OPS de TGL exceto para ACFT sediadas em SBJH.
DISTÂNCIA(S) DECLARADA(S)
  1.  
RWY TORA(m) TODA(m) ASDA(m) LDA(m) ALT. GEOIDAL(m) COORDENADAS
12 2298 2470 2298 2125 -3,58 S23 25 34
W047 10 35
30 2297 2470 2297 2125 -3,58 S23 25 39
W047 09 20
COMPL -
  • [1] MEHT: 55FT
  • [2] MEHT: 56FT
TEMP (2)
RevogadoINFOTEMP SP2128M/20
MET CMA-3 NA MODALIDADE DE AUTOATENDIMENTO HR SER H24 INSTL

Duração: 18/12/20 14:35 a 18/03/21 23:59 UTC | Divulgação: 18/12/2020 14:35

INFOTEMP SP2125M/20
AFIS CATARINA 131.800MHZ HR SER H24 INSTL

Duração: 18/12/20 13:08 a 18/03/21 23:59 UTC | Divulgação: 18/12/2020 13:08


Suplementos AIP (0)

NOTAM (0)

Nascer/Por do Sol

08:38

22:00


METAR

180700Z 06002KT CAVOK 20/20 Q1012=

TAF

180130Z 1806/1818 03005KT CAVOK TN19/1809Z TX27/1817Z PROB30 1806/1809 SCT009 BECMG 1809/1811 33007KT 9999 FEW035 BECMG 1813/1815 SCT035 FEW045TCU RMK PHM=


Cartas (4)

IAC


SID



Rotas Preferenciais (0)


Aeródromos Próximos